Time;durP1;ratioP1;P1;durP2;ratioP2;P2;SDS_P1;SDS_P2;PMS_P1;PMS_P2;Temp;Humidity;BMP_temperature;BMP_pressure;BME280_temperature;BME280_humidity;BME280_pressure;Samples;Min_cycle;Max_cycle;Signal;HPM_P1;HPM_P2
2023/07/08 00:01:13;;;;;;;3.47;1.67;;;;;;;;;;6186840;23;20198;-86
2023/07/08 00:03:40;;;;;;;1.60;1.50;;;;;;;;;;6186791;23;20183;-86
2023/07/08 00:06:14;;;;;;;2.00;1.90;;;;;;;;;;6186687;23;20169;-86
2023/07/08 00:08:41;;;;;;;1.63;1.50;;;;;;;;;;6187215;23;20218;-87
2023/07/08 00:11:12;;;;;;;3.50;1.60;;;;;;;;;;6186676;23;20225;-86
2023/07/08 00:13:40;;;;;;;1.83;1.63;;;;;;;;;;6186879;23;20666;-86
2023/07/08 00:16:11;;;;;;;2.22;1.30;;;;;;;;;;6186671;23;20262;-86
2023/07/08 00:18:39;;;;;;;1.80;1.70;;;;;;;;;;6186689;23;20166;-86
2023/07/08 00:21:14;;;;;;;1.90;1.80;;;;;;;;;;6185822;23;20281;-86
2023/07/08 00:23:43;;;;;;;1.80;1.70;;;;;;;;;;6185824;23;20165;-86
2023/07/08 00:26:14;;;;;;;1.58;1.48;;;;;;;;;;6186670;23;20574;-86
2023/07/08 00:28:42;;;;;;;1.48;1.38;;;;;;;;;;6187526;23;20174;-86
2023/07/08 00:31:11;;;;;;;3.95;1.33;;;;;;;;;;6186736;23;20297;-87
2023/07/08 00:33:39;;;;;;;2.10;2.00;;;;;;;;;;6186126;23;20206;-87
2023/07/08 00:36:14;;;;;;;1.40;1.25;;;;;;;;;;6186632;23;20206;-85
2023/07/08 00:38:44;;;;;;;1.45;1.35;;;;;;;;;;6186494;23;20189;-86
2023/07/08 00:41:15;;;;;;;2.53;1.65;;;;;;;;;;6186761;23;20201;-85
2023/07/08 00:43:55;;;;;;;2.03;1.92;;;;;;;;;;6186359;23;20198;-86
2023/07/08 00:46:43;;;;;;;1.42;1.33;;;;;;;;;;6186712;23;20541;-86
2023/07/08 00:49:29;;;;;;;2.22;2.00;;;;;;;;;;6186225;23;20625;-86
2023/07/08 00:52:13;;;;;;;2.53;1.70;;;;;;;;;;6185900;23;20273;-86
2023/07/08 00:54:40;;;;;;;2.63;1.48;;;;;;;;;;6186487;23;20583;-86
2023/07/08 00:57:08;;;;;;;2.40;1.60;;;;;;;;;;6185940;23;20202;-86
2023/07/08 00:59:39;;;;;;;2.35;1.60;;;;;;;;;;6185323;23;20261;-87
2023/07/08 01:02:10;;;;;;;2.35;2.15;;;;;;;;;;6186069;23;20166;-87
2023/07/08 01:04:44;;;;;;;2.20;1.70;;;;;;;;;;6186790;23;20261;-84
2023/07/08 01:07:13;;;;;;;1.65;1.55;;;;;;;;;;6185977;23;20155;-87
2023/07/08 01:09:45;;;;;;;2.17;1.88;;;;;;;;;;6185969;23;20210;-86
2023/07/08 01:12:16;;;;;;;2.42;1.63;;;;;;;;;;6186845;23;20546;-87
2023/07/08 01:14:44;;;;;;;1.67;1.52;;;;;;;;;;6186688;23;20210;-86
2023/07/08 01:17:13;;;;;;;2.22;2.00;;;;;;;;;;6186137;23;20170;-86
2023/07/08 01:19:41;;;;;;;3.50;2.13;;;;;;;;;;6186584;23;20244;-85
2023/07/08 01:22:11;;;;;;;2.80;1.85;;;;;;;;;;6186074;23;20217;-87
2023/07/08 01:24:42;;;;;;;1.48;1.30;;;;;;;;;;6186062;23;20190;-87
2023/07/08 01:27:13;;;;;;;2.65;1.38;;;;;;;;;;6186420;23;20258;-86
2023/07/08 01:29:40;;;;;;;2.05;1.83;;;;;;;;;;6186626;23;20262;-86
2023/07/08 01:32:10;;;;;;;2.60;1.50;;;;;;;;;;6185921;23;20253;-86
2023/07/08 01:34:38;;;;;;;1.45;1.35;;;;;;;;;;6186229;23;20512;-86
2023/07/08 01:37:06;;;;;;;1.70;1.60;;;;;;;;;;6186246;23;20185;-86
2023/07/08 01:39:35;;;;;;;3.08;2.88;;;;;;;;;;6186104;23;20529;-86
2023/07/08 01:42:03;;;;;;;2.20;1.95;;;;;;;;;;6185655;23;20185;-86
2023/07/08 01:44:33;;;;;;;1.90;1.80;;;;;;;;;;6186751;23;20205;-85
2023/07/08 01:47:06;;;;;;;1.88;1.77;;;;;;;;;;6186505;23;20238;-86
2023/07/08 01:49:34;;;;;;;2.00;1.50;;;;;;;;;;6186558;23;20623;-86
2023/07/08 01:52:02;;;;;;;1.75;1.65;;;;;;;;;;6186289;23;20721;-86
2023/07/08 01:54:29;;;;;;;2.53;1.90;;;;;;;;;;6186411;23;20254;-86
2023/07/08 01:57:00;;;;;;;1.73;1.63;;;;;;;;;;6186259;23;20626;-86
2023/07/08 01:59:28;;;;;;;2.25;1.83;;;;;;;;;;6186666;23;20590;-86
2023/07/08 02:01:56;;;;;;;3.65;1.90;;;;;;;;;;6186250;23;20290;-85
2023/07/08 02:04:25;;;;;;;2.00;1.90;;;;;;;;;;6185975;23;20262;-86
2023/07/08 02:06:54;;;;;;;1.70;1.60;;;;;;;;;;6186183;23;20258;-86
2023/07/08 02:09:21;;;;;;;2.25;2.10;;;;;;;;;;6186210;23;20198;-86
2023/07/08 02:11:49;;;;;;;1.73;1.63;;;;;;;;;;6185957;23;20222;-85
2023/07/08 02:14:17;;;;;;;3.35;1.60;;;;;;;;;;6185784;23;20234;-86
2023/07/08 02:16:45;;;;;;;2.22;2.08;;;;;;;;;;6186228;23;20677;-86
2023/07/08 02:19:13;;;;;;;2.22;1.65;;;;;;;;;;6185996;23;20587;-86
2023/07/08 02:21:40;;;;;;;2.40;2.20;;;;;;;;;;6185816;23;20718;-87
2023/07/08 02:24:08;;;;;;;3.58;2.25;;;;;;;;;;6186085;23;20570;-86
2023/07/08 02:26:35;;;;;;;2.03;1.80;;;;;;;;;;6186195;23;20234;-87
2023/07/08 02:29:03;;;;;;;2.03;1.80;;;;;;;;;;6185854;23;20565;-86
2023/07/08 02:31:32;;;;;;;2.42;2.22;;;;;;;;;;6185805;23;20195;-86
2023/07/08 02:34:01;;;;;;;2.10;1.90;;;;;;;;;;6187034;23;20198;-87
2023/07/08 02:36:30;;;;;;;1.75;1.63;;;;;;;;;;6187687;23;20175;-85
2023/07/08 02:38:57;;;;;;;3.63;2.20;;;;;;;;;;6187629;23;20201;-85
2023/07/08 02:41:25;;;;;;;2.20;1.67;;;;;;;;;;6187525;23;20194;-87
2023/07/08 02:43:52;;;;;;;1.70;1.60;;;;;;;;;;6187047;23;20194;-87
2023/07/08 02:46:19;;;;;;;1.65;1.40;;;;;;;;;;6187233;23;20241;-86
2023/07/08 02:48:48;;;;;;;2.65;1.60;;;;;;;;;;6187437;23;20206;-85
2023/07/08 02:51:16;;;;;;;2.67;1.27;;;;;;;;;;6189691;23;20662;-84
2023/07/08 02:53:44;;;;;;;1.92;1.83;;;;;;;;;;6189655;23;20202;-85
2023/07/08 02:56:11;;;;;;;2.13;2.00;;;;;;;;;;6189868;23;20680;-85
2023/07/08 02:58:38;;;;;;;1.77;1.60;;;;;;;;;;6189992;23;20248;-85
2023/07/08 03:01:06;;;;;;;3.67;2.08;;;;;;;;;;6189800;23;20525;-84
2023/07/08 03:03:34;;;;;;;1.85;1.73;;;;;;;;;;6189806;23;20179;-85
2023/07/08 03:06:05;;;;;;;4.47;2.30;;;;;;;;;;6189743;23;20249;-86
2023/07/08 03:08:33;;;;;;;1.83;1.60;;;;;;;;;;6189414;23;20178;-85
2023/07/08 03:11:04;;;;;;;3.03;2.40;;;;;;;;;;6189902;23;20205;-85
2023/07/08 03:13:32;;;;;;;1.77;1.67;;;;;;;;;;6189548;23;20238;-84
2023/07/08 03:16:01;;;;;;;2.00;1.52;;;;;;;;;;6189748;23;20265;-84
2023/07/08 03:18:29;;;;;;;2.60;2.40;;;;;;;;;;6189882;23;20237;-84
2023/07/08 03:20:58;;;;;;;2.00;1.80;;;;;;;;;;6189471;23;20277;-85
2023/07/08 03:23:27;;;;;;;1.92;1.83;;;;;;;;;;6188695;23;20206;-84
2023/07/08 03:25:54;;;;;;;1.60;1.48;;;;;;;;;;6190624;23;20230;-86
2023/07/08 03:28:22;;;;;;;3.33;1.70;;;;;;;;;;6187999;23;20185;-86
2023/07/08 03:30:54;;;;;;;1.80;1.70;;;;;;;;;;6189629;23;20268;-84
2023/07/08 03:33:22;;;;;;;3.67;1.77;;;;;;;;;;6190280;23;20163;-86
2023/07/08 03:35:50;;;;;;;1.90;1.67;;;;;;;;;;6189860;23;20253;-87
2023/07/08 03:38:17;;;;;;;2.42;1.77;;;;;;;;;;6189227;23;20236;-86
2023/07/08 03:40:46;;;;;;;1.73;1.63;;;;;;;;;;6188913;23;20206;-86
2023/07/08 03:43:14;;;;;;;2.03;1.70;;;;;;;;;;6190515;23;20572;-85
2023/07/08 03:45:41;;;;;;;1.60;1.50;;;;;;;;;;6189909;23;20258;-87
2023/07/08 03:48:11;;;;;;;1.92;1.83;;;;;;;;;;6188851;23;20229;-86
2023/07/08 03:50:38;;;;;;;2.08;1.48;;;;;;;;;;6191029;23;20198;-86
2023/07/08 03:53:06;;;;;;;1.70;1.60;;;;;;;;;;6190876;23;20180;-84
2023/07/08 03:55:34;;;;;;;1.98;1.88;;;;;;;;;;6190687;23;20209;-86
2023/07/08 03:58:02;;;;;;;2.17;1.98;;;;;;;;;;6191335;23;20175;-86
2023/07/08 04:00:30;;;;;;;2.67;1.92;;;;;;;;;;6190983;23;20229;-84
2023/07/08 04:02:57;;;;;;;2.35;1.58;;;;;;;;;;6190443;23;20253;-86
2023/07/08 04:05:25;;;;;;;2.00;1.90;;;;;;;;;;6190737;23;20212;-86
2023/07/08 04:07:53;;;;;;;2.58;1.80;;;;;;;;;;6188338;23;20237;-86
2023/07/08 04:10:21;;;;;;;2.50;1.77;;;;;;;;;;6185925;23;20273;-85
2023/07/08 04:12:48;;;;;;;2.83;1.48;;;;;;;;;;6188796;23;20230;-86
2023/07/08 04:15:17;;;;;;;1.88;1.75;;;;;;;;;;6188615;23;20190;-86
2023/07/08 04:17:48;;;;;;;3.25;2.00;;;;;;;;;;6189368;23;20221;-86
2023/07/08 04:20:18;;;;;;;1.50;1.40;;;;;;;;;;6189624;23;20277;-85
2023/07/08 04:22:45;;;;;;;1.83;1.73;;;;;;;;;;6188996;23;20223;-87
2023/07/08 04:25:14;;;;;;;2.10;1.63;;;;;;;;;;6189569;23;20257;-86
2023/07/08 04:27:42;;;;;;;1.90;1.80;;;;;;;;;;6189356;23;20195;-87
2023/07/08 04:30:22;;;;;;;1.85;1.60;;;;;;;;;;6189116;23;20209;-85
2023/07/08 04:32:52;;;;;;;2.17;1.70;;;;;;;;;;6188831;23;20206;-86
2023/07/08 04:35:19;;;;;;;1.58;1.42;;;;;;;;;;6188246;23;20181;-86
2023/07/08 04:37:47;;;;;;;1.58;1.45;;;;;;;;;;6189111;23;20198;-87
2023/07/08 04:40:19;;;;;;;2.42;1.35;;;;;;;;;;6189183;23;20202;-86
2023/07/08 04:42:49;;;;;;;1.92;1.60;;;;;;;;;;6188843;23;20612;-85
2023/07/08 04:45:19;;;;;;;1.77;1.58;;;;;;;;;;6188666;23;20170;-87
2023/07/08 04:47:51;;;;;;;1.40;1.30;;;;;;;;;;6188620;23;20559;-87
2023/07/08 04:50:19;;;;;;;1.40;1.30;;;;;;;;;;6188261;23;20715;-85
2023/07/08 04:52:46;;;;;;;1.50;1.30;;;;;;;;;;6187858;23;20265;-86
2023/07/08 04:55:15;;;;;;;1.15;1.08;;;;;;;;;;6188166;23;20238;-86
2023/07/08 04:57:42;;;;;;;1.40;1.30;;;;;;;;;;6188965;23;20213;-86
2023/07/08 05:00:16;;;;;;;1.63;1.52;;;;;;;;;;6188400;23;20531;-87
2023/07/08 05:02:45;;;;;;;1.80;1.70;;;;;;;;;;6188771;23;20617;-86
2023/07/08 05:05:13;;;;;;;1.30;1.20;;;;;;;;;;6188253;23;20205;-86
2023/07/08 05:07:40;;;;;;;1.33;1.23;;;;;;;;;;6187488;23;20278;-87
2023/07/08 05:10:09;;;;;;;1.60;1.50;;;;;;;;;;6186345;23;20748;-86
2023/07/08 05:12:37;;;;;;;2.65;1.50;;;;;;;;;;6186608;23;20250;-87
2023/07/08 05:15:05;;;;;;;3.40;1.92;;;;;;;;;;6186060;23;20178;-85
2023/07/08 05:17:33;;;;;;;1.80;1.70;;;;;;;;;;6186565;23;20764;-87
2023/07/08 05:20:03;;;;;;;1.63;1.52;;;;;;;;;;6186843;23;20274;-85
2023/07/08 05:22:31;;;;;;;1.98;1.80;;;;;;;;;;6186418;23;20174;-85
2023/07/08 05:24:59;;;;;;;1.48;1.42;;;;;;;;;;6186889;23;20257;-85
2023/07/08 05:27:26;;;;;;;1.70;1.38;;;;;;;;;;6186200;23;20226;-85
2023/07/08 05:29:54;;;;;;;1.60;1.50;;;;;;;;;;6186348;23;20222;-85
2023/07/08 05:32:22;;;;;;;2.08;1.45;;;;;;;;;;6186877;23;20182;-85
2023/07/08 05:34:50;;;;;;;1.65;1.55;;;;;;;;;;6186809;23;20617;-85
2023/07/08 05:37:21;;;;;;;2.45;2.28;;;;;;;;;;6186488;23;20252;-86
2023/07/08 05:39:48;;;;;;;1.85;1.75;;;;;;;;;;6187190;23;20163;-86
2023/07/08 05:42:16;;;;;;;1.88;1.70;;;;;;;;;;6184970;23;20202;-87
2023/07/08 05:44:43;;;;;;;2.10;1.90;;;;;;;;;;6185742;23;20217;-87
2023/07/08 05:47:11;;;;;;;1.70;1.60;;;;;;;;;;6185820;23;20199;-87
2023/07/08 05:49:38;;;;;;;1.63;1.50;;;;;;;;;;6185038;23;20253;-87
2023/07/08 05:52:10;;;;;;;1.70;1.60;;;;;;;;;;6185635;23;20257;-86
2023/07/08 05:54:40;;;;;;;1.55;1.45;;;;;;;;;;6185774;23;20182;-87
2023/07/08 05:57:09;;;;;;;1.45;1.20;;;;;;;;;;6185511;23;20245;-86
2023/07/08 05:59:38;;;;;;;1.30;1.25;;;;;;;;;;6184798;23;20482;-86
2023/07/08 06:02:07;;;;;;;1.60;1.50;;;;;;;;;;6185840;23;20201;-87
2023/07/08 06:04:35;;;;;;;1.38;1.27;;;;;;;;;;6185272;23;20254;-87
2023/07/08 06:07:02;;;;;;;1.50;1.27;;;;;;;;;;6184994;23;20182;-87
2023/07/08 06:09:30;;;;;;;1.70;1.60;;;;;;;;;;6195857;23;20179;-88
2023/07/08 06:11:58;;;;;;;1.65;1.50;;;;;;;;;;6187808;23;20717;-87
2023/07/08 06:14:26;;;;;;;2.03;1.77;;;;;;;;;;6187320;23;20257;-87
2023/07/08 06:16:55;;;;;;;1.55;1.45;;;;;;;;;;6187759;23;20212;-87
2023/07/08 06:19:22;;;;;;;2.35;1.40;;;;;;;;;;6186924;23;20185;-87
2023/07/08 06:21:50;;;;;;;1.45;1.35;;;;;;;;;;6187120;23;20191;-87
2023/07/08 06:24:18;;;;;;;1.70;1.60;;;;;;;;;;6186685;23;20193;-86
2023/07/08 06:26:45;;;;;;;1.58;1.48;;;;;;;;;;6186889;23;20189;-87
2023/07/08 06:29:15;;;;;;;1.92;1.83;;;;;;;;;;6186904;23;20277;-87
2023/07/08 06:31:43;;;;;;;2.10;1.52;;;;;;;;;;6187173;23;20199;-86
2023/07/08 06:34:10;;;;;;;2.00;1.60;;;;;;;;;;6186966;23;20170;-87
2023/07/08 06:36:38;;;;;;;3.70;1.88;;;;;;;;;;6187097;23;20630;-87
2023/07/08 06:39:07;;;;;;;1.90;1.75;;;;;;;;;;6186657;23;20174;-87
2023/07/08 06:41:35;;;;;;;2.15;1.95;;;;;;;;;;6186951;23;20202;-87
2023/07/08 06:44:03;;;;;;;2.28;2.13;;;;;;;;;;6186925;23;20237;-86
2023/07/08 06:46:31;;;;;;;2.67;2.05;;;;;;;;;;6186514;23;20174;-87
2023/07/08 06:48:59;;;;;;;2.83;1.70;;;;;;;;;;6186424;23;20221;-86
2023/07/08 06:51:27;;;;;;;1.67;1.58;;;;;;;;;;6186475;23;20238;-85
2023/07/08 06:53:54;;;;;;;2.03;1.85;;;;;;;;;;6186581;23;20202;-86
2023/07/08 06:56:22;;;;;;;2.17;2.08;;;;;;;;;;6186502;23;20217;-87
2023/07/08 06:58:50;;;;;;;1.48;1.38;;;;;;;;;;6186554;23;20257;-86
2023/07/08 07:01:17;;;;;;;2.13;2.00;;;;;;;;;;6186804;23;20205;-86
2023/07/08 07:03:46;;;;;;;1.65;1.55;;;;;;;;;;6185815;23;20177;-86
2023/07/08 07:06:14;;;;;;;1.92;1.83;;;;;;;;;;6186112;23;20261;-86
2023/07/08 07:08:41;;;;;;;1.92;1.73;;;;;;;;;;6186193;23;20229;-86
2023/07/08 07:11:09;;;;;;;2.33;2.05;;;;;;;;;;6186468;23;20248;-86
2023/07/08 07:13:36;;;;;;;1.55;1.45;;;;;;;;;;6186449;23;20198;-87
2023/07/08 07:16:04;;;;;;;1.70;1.60;;;;;;;;;;6186855;23;20233;-86
2023/07/08 07:18:32;;;;;;;2.08;1.92;;;;;;;;;;6186184;23;20253;-87
2023/07/08 07:21:01;;;;;;;1.65;1.55;;;;;;;;;;6186454;23;20273;-86
2023/07/08 07:23:28;;;;;;;2.60;2.40;;;;;;;;;;6186389;23;20178;-86
2023/07/08 07:25:57;;;;;;;3.25;2.13;;;;;;;;;;6186169;23;20566;-89
2023/07/08 07:28:24;;;;;;;2.45;2.03;;;;;;;;;;6186136;23;20198;-86
2023/07/08 07:30:58;;;;;;;2.47;2.20;;;;;;;;;;6186233;23;20204;-87
2023/07/08 07:33:26;;;;;;;2.50;2.30;;;;;;;;;;6186053;23;20209;-87
2023/07/08 07:35:54;;;;;;;5.53;2.38;;;;;;;;;;6185932;23;20257;-86
2023/07/08 07:38:24;;;;;;;2.30;2.20;;;;;;;;;;6185641;23;20252;-86
2023/07/08 07:40:54;;;;;;;2.45;2.20;;;;;;;;;;6186437;23;20645;-86
2023/07/08 07:43:22;;;;;;;2.13;1.90;;;;;;;;;;6185786;23;20254;-86
2023/07/08 07:45:52;;;;;;;1.77;1.67;;;;;;;;;;6186169;23;20181;-86
2023/07/08 07:48:19;;;;;;;2.10;2.00;;;;;;;;;;6186438;23;20221;-86
2023/07/08 07:50:49;;;;;;;1.90;1.80;;;;;;;;;;6185749;23;20201;-87
2023/07/08 07:53:16;;;;;;;2.35;2.15;;;;;;;;;;6185767;23;20610;-87
2023/07/08 07:55:45;;;;;;;2.08;1.92;;;;;;;;;;6185518;23;20214;-88
2023/07/08 07:58:13;;;;;;;2.42;2.22;;;;;;;;;;6185669;23;20210;-87
2023/07/08 08:00:40;;;;;;;2.20;2.00;;;;;;;;;;6185421;23;20226;-87
2023/07/08 08:03:08;;;;;;;1.80;1.63;;;;;;;;;;6185561;23;20210;-85
2023/07/08 08:05:34;;;;;;;2.00;1.90;;;;;;;;;;6185011;23;20214;-87
2023/07/08 08:08:03;;;;;;;2.00;1.90;;;;;;;;;;6185086;23;20174;-85
2023/07/08 08:10:32;;;;;;;2.25;2.13;;;;;;;;;;6184869;23;20198;-86
2023/07/08 08:13:01;;;;;;;2.80;2.60;;;;;;;;;;6185827;23;20842;-88
2023/07/08 08:15:28;;;;;;;2.10;2.00;;;;;;;;;;6185192;23;20178;-87
2023/07/08 08:17:56;;;;;;;1.75;1.65;;;;;;;;;;6185445;23;20249;-87
2023/07/08 08:20:26;;;;;;;2.45;2.25;;;;;;;;;;6185963;23;20241;-87
2023/07/08 08:22:54;;;;;;;2.00;1.90;;;;;;;;;;6186167;23;20245;-87
2023/07/08 08:25:24;;;;;;;2.30;2.10;;;;;;;;;;6185621;23;20710;-87
2023/07/08 08:27:52;;;;;;;1.60;1.50;;;;;;;;;;6185611;23;20622;-87
2023/07/08 08:30:21;;;;;;;2.45;2.20;;;;;;;;;;6184936;23;20233;-87
2023/07/08 08:32:49;;;;;;;2.13;2.03;;;;;;;;;;6185856;23;20555;-87
2023/07/08 08:35:16;;;;;;;2.38;2.28;;;;;;;;;;6185575;23;20257;-87
2023/07/08 08:37:44;;;;;;;2.75;2.55;;;;;;;;;;6185811;23;20517;-87
2023/07/08 08:40:16;;;;;;;2.70;2.22;;;;;;;;;;6185183;23;20334;-86
2023/07/08 08:42:46;;;;;;;2.00;1.90;;;;;;;;;;6185655;23;20158;-87
2023/07/08 08:45:18;;;;;;;2.20;2.03;;;;;;;;;;6185798;23;20244;-88
2023/07/08 08:47:50;;;;;;;2.50;2.30;;;;;;;;;;6185545;23;20158;-87
2023/07/08 08:50:43;;;;;;;2.53;2.33;;;;;;;;;;6186035;23;20202;-86
2023/07/08 08:53:14;;;;;;;2.40;2.20;;;;;;;;;;6180703;23;20181;-87
2023/07/08 08:55:43;;;;;;;2.42;2.22;;;;;;;;;;6184960;23;20514;-87
2023/07/08 08:58:22;;;;;;;2.63;2.40;;;;;;;;;;6185723;23;20177;-86
2023/07/08 09:00:59;;;;;;;3.00;2.80;;;;;;;;;;6185560;23;20197;-87
2023/07/08 09:03:42;;;;;;;3.03;2.83;;;;;;;;;;6185696;23;20233;-87
2023/07/08 09:06:18;;;;;;;2.78;2.58;;;;;;;;;;6184772;23;20242;-86
2023/07/08 09:08:46;;;;;;;3.22;2.70;;;;;;;;;;6184923;23;20220;-86
2023/07/08 09:11:35;;;;;;;2.58;2.28;;;;;;;;;;6185417;23;20201;-86
2023/07/08 09:14:02;;;;;;;2.67;2.47;;;;;;;;;;6185173;23;20159;-86
2023/07/08 09:16:42;;;;;;;9.07;3.10;;;;;;;;;;6184860;23;20212;-86
2023/07/08 09:19:15;;;;;;;2.92;2.72;;;;;;;;;;6185968;23;20186;-87
2023/07/08 09:21:48;;;;;;;2.80;2.60;;;;;;;;;;6184511;23;20273;-87
2023/07/08 09:24:20;;;;;;;2.70;2.50;;;;;;;;;;6184926;23;20237;-87
2023/07/08 09:26:48;;;;;;;2.05;1.95;;;;;;;;;;6185726;23;20241;-86
2023/07/08 09:29:16;;;;;;;2.22;2.13;;;;;;;;;;6183693;23;20228;-87
2023/07/08 09:31:44;;;;;;;2.92;2.72;;;;;;;;;;6184365;23;20273;-88
2023/07/08 09:34:18;;;;;;;3.28;2.97;;;;;;;;;;6184153;23;20178;-87
2023/07/08 09:36:48;;;;;;;3.00;2.80;;;;;;;;;;6185413;23;20245;-87
2023/07/08 09:39:18;;;;;;;3.15;2.95;;;;;;;;;;6185131;23;20158;-86
2023/07/08 09:41:49;;;;;;;3.97;3.63;;;;;;;;;;6185934;23;20269;-86
2023/07/08 09:44:26;;;;;;;2.55;2.38;;;;;;;;;;6187470;23;20220;-87
2023/07/08 09:46:53;;;;;;;3.83;3.47;;;;;;;;;;6188642;23;20158;-87
2023/07/08 09:49:28;;;;;;;2.90;2.70;;;;;;;;;;6187710;23;20205;-87
2023/07/08 09:51:56;;;;;;;3.08;2.88;;;;;;;;;;6187002;23;20198;-87
2023/07/08 09:54:25;;;;;;;3.78;2.67;;;;;;;;;;6186693;23;20265;-86
2023/07/08 09:56:59;;;;;;;3.08;2.80;;;;;;;;;;6186992;23;20174;-87
2023/07/08 09:59:34;;;;;;;3.05;2.80;;;;;;;;;;6187361;23;20164;-86
2023/07/08 10:02:05;;;;;;;3.20;3.00;;;;;;;;;;6187294;23;20161;-87
2023/07/08 10:04:34;;;;;;;3.78;3.47;;;;;;;;;;6187245;23;20248;-87
2023/07/08 10:07:02;;;;;;;2.70;2.53;;;;;;;;;;6187067;23;20342;-87
2023/07/08 10:09:29;;;;;;;3.20;3.00;;;;;;;;;;6186315;23;20202;-87
2023/07/08 10:12:03;;;;;;;3.70;3.40;;;;;;;;;;6187224;23;20197;-88
2023/07/08 10:14:34;;;;;;;3.58;3.28;;;;;;;;;;6186925;23;20224;-86
2023/07/08 10:17:02;;;;;;;3.28;2.97;;;;;;;;;;6187376;23;20670;-87
2023/07/08 10:19:30;;;;;;;3.33;3.13;;;;;;;;;;6186243;23;20182;-88
2023/07/08 10:22:14;;;;;;;3.55;3.25;;;;;;;;;;6186030;23;20213;-87
2023/07/08 10:25:09;;;;;;;3.00;2.80;;;;;;;;;;6187353;23;20193;-87
2023/07/08 10:27:40;;;;;;;3.17;2.95;;;;;;;;;;6184033;23;20253;-88
2023/07/08 10:30:21;;;;;;;3.38;3.08;;;;;;;;;;6186132;23;20577;-86
2023/07/08 10:33:08;;;;;;;4.05;3.75;;;;;;;;;;6190896;23;20190;-85
2023/07/08 10:35:37;;;;;;;3.70;3.40;;;;;;;;;;6189712;23;20180;-86
2023/07/08 10:38:33;;;;;;;3.70;3.40;;;;;;;;;;6189494;23;20261;-85
2023/07/08 10:41:05;;;;;;;3.83;3.53;;;;;;;;;;6188316;23;20221;-86
2023/07/08 10:43:48;;;;;;;3.17;2.97;;;;;;;;;;6190834;23;20174;-86
2023/07/08 10:46:31;;;;;;;3.33;3.13;;;;;;;;;;6189314;23;20674;-86
2023/07/08 10:49:28;;;;;;;3.25;3.05;;;;;;;;;;6188466;23;20237;-87
2023/07/08 10:52:07;;;;;;;3.33;3.13;;;;;;;;;;6175229;23;20566;-86
2023/07/08 10:54:52;;;;;;;3.50;3.20;;;;;;;;;;6187131;23;20264;-86
2023/07/08 10:57:41;;;;;;;3.45;3.15;;;;;;;;;;6187085;23;20177;-85
2023/07/08 11:00:20;;;;;;;3.90;3.60;;;;;;;;;;6189354;23;20198;-85
2023/07/08 11:03:25;;;;;;;3.67;3.38;;;;;;;;;;6189907;23;20165;-86
2023/07/08 11:06:00;;;;;;;3.30;3.10;;;;;;;;;;6179049;23;20260;-87
2023/07/08 11:08:30;;;;;;;3.25;2.95;;;;;;;;;;6188213;23;20181;-85
2023/07/08 11:11:02;;;;;;;3.78;3.47;;;;;;;;;;6190832;23;20197;-85
2023/07/08 11:13:32;;;;;;;3.30;3.10;;;;;;;;;;6192202;23;20162;-85
2023/07/08 11:16:05;;;;;;;3.70;3.42;;;;;;;;;;6190758;23;20262;-85
2023/07/08 11:18:40;;;;;;;3.03;2.83;;;;;;;;;;6190235;23;20193;-86
2023/07/08 11:21:13;;;;;;;3.35;3.08;;;;;;;;;;6189544;23;20276;-86
2023/07/08 11:23:44;;;;;;;4.15;3.70;;;;;;;;;;6191388;23;20197;-85
2023/07/08 11:26:19;;;;;;;3.95;3.65;;;;;;;;;;6190923;23;20646;-84
2023/07/08 11:28:47;;;;;;;3.33;3.10;;;;;;;;;;6191854;23;20166;-85
2023/07/08 11:31:16;;;;;;;4.30;3.67;;;;;;;;;;6189751;23;20229;-85
2023/07/08 11:33:44;;;;;;;5.15;4.65;;;;;;;;;;6190698;23;20209;-85
2023/07/08 11:36:12;;;;;;;3.72;3.45;;;;;;;;;;6191052;23;20201;-86
2023/07/08 11:38:50;;;;;;;3.58;3.28;;;;;;;;;;6189125;23;20258;-85
2023/07/08 11:41:21;;;;;;;3.22;3.03;;;;;;;;;;6188322;23;20284;-86
2023/07/08 11:43:50;;;;;;;3.55;3.30;;;;;;;;;;6186770;23;20237;-85
2023/07/08 11:46:25;;;;;;;3.78;3.25;;;;;;;;;;6187342;23;20256;-85
2023/07/08 11:48:54;;;;;;;4.20;3.50;;;;;;;;;;6188374;23;20161;-86
2023/07/08 11:51:26;;;;;;;3.58;3.38;;;;;;;;;;6187485;23;20213;-85
2023/07/08 11:54:03;;;;;;;3.15;2.95;;;;;;;;;;6186647;23;20249;-85
2023/07/08 11:56:50;;;;;;;3.50;3.30;;;;;;;;;;6187588;23;20181;-86
2023/07/08 11:59:20;;;;;;;3.70;3.40;;;;;;;;;;6188497;23;20177;-85
2023/07/08 12:01:53;;;;;;;4.47;4.07;;;;;;;;;;6190705;23;20225;-85
2023/07/08 12:04:31;;;;;;;4.43;4.13;;;;;;;;;;6190154;23;20163;-85
2023/07/08 12:07:13;;;;;;;4.38;4.03;;;;;;;;;;6189866;23;20158;-85
2023/07/08 12:09:48;;;;;;;4.13;3.83;;;;;;;;;;6193733;23;20162;-85
2023/07/08 12:12:24;;;;;;;3.80;3.60;;;;;;;;;;6188959;23;20158;-86
2023/07/08 12:14:54;;;;;;;3.60;3.33;;;;;;;;;;6191108;23;20616;-85
2023/07/08 12:17:22;;;;;;;4.82;4.43;;;;;;;;;;6193451;23;20215;-84
2023/07/08 12:19:50;;;;;;;4.28;3.97;;;;;;;;;;6195001;23;20182;-84
2023/07/08 12:22:18;;;;;;;5.13;4.72;;;;;;;;;;6196039;23;20197;-84
2023/07/08 12:24:46;;;;;;;4.68;4.28;;;;;;;;;;6194971;23;20178;-85
2023/07/08 12:27:13;;;;;;;4.07;3.78;;;;;;;;;;6191839;23;20177;-85
2023/07/08 12:29:42;;;;;;;3.47;3.17;;;;;;;;;;6190652;23;20507;-84
2023/07/08 12:32:14;;;;;;;4.25;3.95;;;;;;;;;;6191294;23;20209;-86
2023/07/08 12:34:42;;;;;;;4.20;3.90;;;;;;;;;;6192870;23;20161;-84
2023/07/08 12:37:13;;;;;;;4.95;4.43;;;;;;;;;;6192204;23;20193;-85
2023/07/08 12:39:41;;;;;;;4.57;4.18;;;;;;;;;;6191736;23;20166;-84
2023/07/08 12:42:12;;;;;;;4.70;4.32;;;;;;;;;;6192790;23;20242;-85
2023/07/08 12:44:44;;;;;;;4.40;4.10;;;;;;;;;;6189377;23;20166;-85
2023/07/08 12:47:11;;;;;;;4.60;4.20;;;;;;;;;;6190240;23;20534;-83
2023/07/08 12:49:39;;;;;;;4.63;4.22;;;;;;;;;;6193096;23;20519;-85
2023/07/08 12:52:07;;;;;;;4.15;3.85;;;;;;;;;;6192500;23;20174;-85
2023/07/08 12:54:34;;;;;;;4.15;3.85;;;;;;;;;;6191193;23;20261;-85
2023/07/08 12:57:02;;;;;;;3.92;3.53;;;;;;;;;;6192799;23;20186;-84
2023/07/08 12:59:31;;;;;;;4.30;4.00;;;;;;;;;;6194866;23;20209;-84
2023/07/08 13:02:00;;;;;;;5.03;4.63;;;;;;;;;;6191603;23;20668;-86
2023/07/08 13:04:29;;;;;;;4.25;3.75;;;;;;;;;;6190457;23;20205;-84
2023/07/08 13:06:56;;;;;;;4.30;3.90;;;;;;;;;;6191587;23;20181;-85
2023/07/08 13:09:37;;;;;;;4.03;3.72;;;;;;;;;;6191260;23;20178;-84
2023/07/08 13:12:12;;;;;;;3.47;3.17;;;;;;;;;;6191937;23;20545;-85
2023/07/08 13:14:43;;;;;;;3.75;3.35;;;;;;;;;;6191305;23;20237;-85
2023/07/08 13:17:14;;;;;;;4.38;3.97;;;;;;;;;;6190465;23;20162;-84
2023/07/08 13:19:42;;;;;;;4.82;4.43;;;;;;;;;;6194350;23;20201;-85
2023/07/08 13:22:15;;;;;;;4.75;4.38;;;;;;;;;;6189962;23;20495;-85
2023/07/08 13:24:43;;;;;;;4.60;4.25;;;;;;;;;;6192062;23;20242;-84
2023/07/08 13:27:19;;;;;;;4.30;3.97;;;;;;;;;;6192929;23;20555;-85
2023/07/08 13:29:47;;;;;;;4.53;4.22;;;;;;;;;;6194322;23;20672;-84
2023/07/08 13:32:16;;;;;;;5.43;4.97;;;;;;;;;;6194468;23;20205;-84
2023/07/08 13:34:43;;;;;;;4.72;4.35;;;;;;;;;;6196581;23;20184;-85
2023/07/08 13:37:14;;;;;;;4.30;4.00;;;;;;;;;;6195011;23;20182;-85
2023/07/08 13:39:45;;;;;;;4.35;3.97;;;;;;;;;;6192655;23;20188;-85
2023/07/08 13:42:13;;;;;;;5.07;4.70;;;;;;;;;;6193975;23;20232;-84
2023/07/08 13:44:45;;;;;;;5.15;4.75;;;;;;;;;;6197329;23;20652;-84
2023/07/08 13:47:29;;;;;;;4.43;4.10;;;;;;;;;;6194956;23;20680;-84
2023/07/08 13:50:05;;;;;;;3.80;3.50;;;;;;;;;;6192704;23;20259;-85
2023/07/08 13:52:32;;;;;;;3.33;3.13;;;;;;;;;;6194320;23;20196;-85
2023/07/08 13:55:02;;;;;;;3.78;3.47;;;;;;;;;;6192149;23;20192;-85
2023/07/08 13:57:34;;;;;;;3.60;3.30;;;;;;;;;;6193910;23;20162;-85
2023/07/08 14:00:02;;;;;;;3.20;3.00;;;;;;;;;;6192261;23;20677;-85
2023/07/08 14:02:33;;;;;;;3.70;3.40;;;;;;;;;;6193253;23;20194;-85
2023/07/08 14:05:03;;;;;;;4.07;3.78;;;;;;;;;;6193315;23;20205;-85
2023/07/08 14:07:34;;;;;;;4.28;3.97;;;;;;;;;;6195001;23;20249;-83
2023/07/08 14:10:01;;;;;;;4.20;3.88;;;;;;;;;;6191693;23;20224;-83
2023/07/08 14:12:29;;;;;;;4.68;4.30;;;;;;;;;;6195251;23;20178;-83
2023/07/08 14:14:56;;;;;;;4.18;3.88;;;;;;;;;;6194471;23;20196;-83
2023/07/08 14:17:26;;;;;;;4.38;4.07;;;;;;;;;;6193546;23;20527;-84
2023/07/08 14:19:55;;;;;;;5.07;4.60;;;;;;;;;;6190370;23;20206;-83
2023/07/08 14:22:27;;;;;;;4.35;4.05;;;;;;;;;;6194517;23;20249;-84
2023/07/08 14:24:55;;;;;;;3.85;3.55;;;;;;;;;;6190239;23;20201;-83
2023/07/08 14:27:23;;;;;;;3.80;3.50;;;;;;;;;;6194393;23;20198;-83
2023/07/08 14:29:52;;;;;;;2.78;2.58;;;;;;;;;;6193747;23;20170;-83
2023/07/08 14:32:26;;;;;;;3.10;2.90;;;;;;;;;;6191368;23;20204;-83
2023/07/08 14:34:58;;;;;;;4.15;3.85;;;;;;;;;;6195366;23;20162;-83
2023/07/08 14:37:25;;;;;;;4.00;3.70;;;;;;;;;;6194458;23;20158;-84
2023/07/08 14:39:53;;;;;;;3.88;3.58;;;;;;;;;;6194113;23;20182;-84
2023/07/08 14:42:21;;;;;;;4.10;3.80;;;;;;;;;;6190210;23;20260;-85
2023/07/08 14:44:52;;;;;;;4.20;3.90;;;;;;;;;;6194852;23;20198;-84
2023/07/08 14:47:21;;;;;;;3.42;3.13;;;;;;;;;;6193503;23;20169;-83
2023/07/08 14:49:49;;;;;;;3.47;3.15;;;;;;;;;;6193266;23;20178;-83
2023/07/08 14:52:18;;;;;;;3.70;3.40;;;;;;;;;;6190734;23;20248;-84
2023/07/08 14:54:46;;;;;;;3.72;3.42;;;;;;;;;;6191283;23;20242;-83
2023/07/08 14:57:17;;;;;;;3.35;3.15;;;;;;;;;;6190405;23;20229;-84
2023/07/08 14:59:45;;;;;;;3.05;2.85;;;;;;;;;;6190608;23;20161;-83
2023/07/08 15:02:21;;;;;;;2.70;2.50;;;;;;;;;;6189180;23;20585;-85